createdAt,value
2019-05-19T00:00:01.376Z,0.00
2019-05-19T00:01:01.282Z,0.00
2019-05-19T00:02:01.284Z,0.00
2019-05-19T00:03:01.084Z,0.00
2019-05-19T00:04:00.988Z,0.00
2019-05-19T00:05:00.908Z,0.00
2019-05-19T00:06:00.814Z,0.00
2019-05-19T00:07:00.703Z,0.00
2019-05-19T00:08:00.610Z,0.00
2019-05-19T00:09:00.632Z,0.00
2019-05-19T00:10:00.420Z,0.00
2019-05-19T00:11:00.338Z,0.00
2019-05-19T00:12:00.233Z,0.00
2019-05-19T00:13:00.180Z,0.00
2019-05-19T00:14:00.046Z,0.00
2019-05-19T00:14:59.949Z,0.00
2019-05-19T00:15:59.970Z,0.00
2019-05-19T00:16:59.759Z,0.00
2019-05-19T00:17:59.665Z,0.00
2019-05-19T00:18:59.569Z,0.00
2019-05-19T00:19:59.475Z,0.00
2019-05-19T00:20:59.394Z,0.00
2019-05-19T00:21:59.285Z,0.00
2019-05-19T00:22:59.295Z,0.00
2019-05-19T00:23:59.922Z,0.00
2019-05-19T00:24:59.002Z,0.00
2019-05-19T00:25:58.931Z,0.00
2019-05-19T00:26:58.813Z,0.00
2019-05-19T00:27:58.732Z,0.00
2019-05-19T00:28:58.626Z,0.00
2019-05-19T00:29:58.633Z,0.00
2019-05-19T00:30:58.451Z,0.00
2019-05-19T00:31:58.385Z,0.00
2019-05-19T00:32:58.250Z,0.00
2019-05-19T00:33:58.157Z,0.00
2019-05-19T00:34:58.056Z,0.00
2019-05-19T00:35:57.977Z,0.00
2019-05-19T00:36:57.971Z,0.00
2019-05-19T00:37:57.812Z,0.00
2019-05-19T00:38:57.679Z,0.00
2019-05-19T00:39:57.585Z,0.00
2019-05-19T00:40:57.490Z,0.00
2019-05-19T00:41:57.410Z,0.00
2019-05-19T00:42:57.300Z,0.00
2019-05-19T00:43:57.307Z,0.00
2019-05-19T00:44:57.114Z,0.00
2019-05-19T00:45:57.018Z,0.00
2019-05-19T00:46:56.958Z,0.00
2019-05-19T00:47:56.829Z,0.00
2019-05-19T00:48:56.732Z,0.00
2019-05-19T00:49:56.636Z,0.00
2019-05-19T00:50:56.545Z,0.00
2019-05-19T00:51:56.468Z,0.00
2019-05-19T00:52:56.354Z,0.00
2019-05-19T00:53:56.257Z,0.00
2019-05-19T00:54:56.165Z,0.00
2019-05-19T00:55:56.077Z,0.00
2019-05-19T00:56:55.989Z,0.00
2019-05-19T00:57:55.880Z,0.00
2019-05-19T00:58:55.786Z,0.00
2019-05-19T00:59:55.689Z,0.00
2019-05-19T01:00:55.597Z,0.00
2019-05-19T01:01:55.519Z,0.00
2019-05-19T01:02:55.408Z,0.00
2019-05-19T01:03:55.313Z,0.00
2019-05-19T01:04:55.221Z,0.00
2019-05-19T01:05:55.120Z,0.00
2019-05-19T01:06:55.042Z,0.00
2019-05-19T01:07:54.934Z,0.00
2019-05-19T01:08:54.837Z,0.00
2019-05-19T01:09:54.744Z,0.00
2019-05-19T01:10:54.649Z,0.00
2019-05-19T01:11:54.568Z,0.00
2019-05-19T01:12:54.459Z,0.00
2019-05-19T01:13:54.370Z,0.00
2019-05-19T01:14:54.275Z,0.00
2019-05-19T01:15:54.177Z,0.00
2019-05-19T01:16:54.095Z,0.00
2019-05-19T01:17:53.987Z,0.00
2019-05-19T01:18:53.891Z,0.00
2019-05-19T01:19:56.060Z,0.00
2019-05-19T01:20:53.700Z,0.00
2019-05-19T01:21:53.623Z,0.00
2019-05-19T01:22:53.512Z,0.00
2019-05-19T01:23:53.418Z,0.00
2019-05-19T01:24:53.321Z,0.00
2019-05-19T01:25:53.231Z,0.00
2019-05-19T01:26:53.148Z,0.00
2019-05-19T01:27:53.043Z,0.00
2019-05-19T01:28:52.946Z,0.00
2019-05-19T01:29:52.846Z,0.00
2019-05-19T01:30:52.754Z,0.00
2019-05-19T01:31:52.672Z,0.00
2019-05-19T01:32:52.565Z,0.00
2019-05-19T01:33:52.469Z,0.00
2019-05-19T01:34:52.375Z,0.00
2019-05-19T01:35:52.281Z,0.00
2019-05-19T01:36:52.199Z,0.00
2019-05-19T01:37:52.092Z,0.00
2019-05-19T01:38:51.995Z,0.00
2019-05-19T01:39:51.900Z,0.00
2019-05-19T01:40:51.806Z,0.00
2019-05-19T01:41:51.725Z,0.00
2019-05-19T01:42:51.615Z,0.00
2019-05-19T01:43:51.522Z,0.00
2019-05-19T01:44:51.427Z,0.00
2019-05-19T01:45:51.331Z,0.00
2019-05-19T01:46:51.241Z,0.00
2019-05-19T01:47:51.172Z,0.00
2019-05-19T01:48:51.049Z,0.00
2019-05-19T01:49:50.979Z,0.00
2019-05-19T01:50:50.857Z,0.00
2019-05-19T01:51:50.766Z,0.00
2019-05-19T01:52:50.683Z,0.00
2019-05-19T01:53:50.572Z,0.00
2019-05-19T01:54:50.478Z,0.00
2019-05-19T01:55:50.382Z,0.00
2019-05-19T01:56:50.289Z,0.00
2019-05-19T01:57:50.221Z,0.00
2019-05-19T01:58:50.099Z,0.00
2019-05-19T01:59:50.004Z,0.00
2019-05-19T02:00:49.909Z,0.00
2019-05-19T02:01:49.812Z,0.00
2019-05-19T02:02:49.733Z,0.00
2019-05-19T02:03:49.630Z,0.00
2019-05-19T02:04:49.529Z,0.00
2019-05-19T02:05:49.434Z,0.00
2019-05-19T02:06:49.459Z,0.00
2019-05-19T02:07:49.256Z,0.00
2019-05-19T02:08:49.151Z,0.00
2019-05-19T02:09:49.051Z,0.00
2019-05-19T02:10:48.957Z,0.00
2019-05-19T02:11:48.865Z,0.00
2019-05-19T02:12:48.782Z,0.00
2019-05-19T02:13:48.777Z,0.00
2019-05-19T02:14:48.579Z,0.00
2019-05-19T02:15:48.487Z,0.00
2019-05-19T02:16:48.388Z,0.00
2019-05-19T02:17:48.310Z,0.00
2019-05-19T02:18:48.199Z,0.00
2019-05-19T02:19:48.103Z,0.00
2019-05-19T02:20:48.110Z,0.00
2019-05-19T02:21:47.914Z,0.00
2019-05-19T02:22:47.836Z,0.00
2019-05-19T02:23:47.724Z,0.00
2019-05-19T02:24:47.630Z,0.00
2019-05-19T02:25:47.533Z,0.00
2019-05-19T02:26:47.458Z,0.00
2019-05-19T02:27:47.415Z,0.00
2019-05-19T02:28:47.250Z,0.00
2019-05-19T02:29:47.153Z,0.00
2019-05-19T02:30:47.061Z,0.00
2019-05-19T02:31:46.962Z,0.00
2019-05-19T02:32:46.884Z,0.00
2019-05-19T02:33:46.774Z,0.00
2019-05-19T02:34:46.717Z,0.00
2019-05-19T02:35:46.584Z,0.00
2019-05-19T02:36:46.489Z,0.00
2019-05-19T02:37:46.404Z,0.00
2019-05-19T02:38:46.297Z,0.00
2019-05-19T02:39:46.200Z,0.00
2019-05-19T02:40:46.108Z,0.00
2019-05-19T02:41:46.012Z,4.00
2019-05-19T02:42:45.931Z,4.00
2019-05-19T02:43:45.820Z,4.00
2019-05-19T02:44:45.728Z,4.00
2019-05-19T02:45:45.628Z,4.00
2019-05-19T02:46:45.534Z,4.00
2019-05-19T02:47:45.441Z,8.00
2019-05-19T02:48:45.358Z,4.00
2019-05-19T02:49:45.549Z,8.00
2019-05-19T02:50:52.333Z,8.00
2019-05-19T02:51:45.061Z,12.00
2019-05-19T02:52:44.963Z,12.00
2019-05-19T02:53:44.881Z,16.00
2019-05-19T02:54:44.779Z,16.00
2019-05-19T02:55:44.676Z,16.00
2019-05-19T02:56:44.699Z,20.00
2019-05-19T02:57:44.494Z,24.00
2019-05-19T02:58:44.407Z,24.00
2019-05-19T02:59:44.299Z,32.00
2019-05-19T03:00:44.198Z,36.00
2019-05-19T03:01:44.105Z,40.00
2019-05-19T03:02:44.013Z,44.00
2019-05-19T03:03:44.034Z,48.00
2019-05-19T03:04:43.822Z,56.00
2019-05-19T03:05:43.722Z,64.00
2019-05-19T03:06:43.646Z,72.00
2019-05-19T03:07:43.532Z,84.00
2019-05-19T03:08:43.453Z,92.00
2019-05-19T03:09:43.343Z,104.00
2019-05-19T03:10:43.353Z,116.00
2019-05-19T03:11:43.150Z,132.00
2019-05-19T03:12:43.058Z,144.00
2019-05-19T03:13:42.973Z,156.00
2019-05-19T03:14:42.868Z,176.00
2019-05-19T03:15:42.821Z,192.00
2019-05-19T03:16:42.774Z,212.00
2019-05-19T03:17:42.684Z,236.00
2019-05-19T03:18:42.495Z,256.00
2019-05-19T03:19:42.389Z,280.00
2019-05-19T03:20:42.303Z,304.00
2019-05-19T03:21:42.197Z,332.00
2019-05-19T03:22:42.104Z,360.00
2019-05-19T03:23:42.020Z,392.00
2019-05-19T03:24:42.012Z,424.00
2019-05-19T03:25:44.231Z,460.00
2019-05-19T03:26:41.719Z,492.00
2019-05-19T03:27:41.631Z,532.00
2019-05-19T03:28:41.548Z,568.00
2019-05-19T03:29:41.451Z,616.00
2019-05-19T03:30:41.376Z,660.00
2019-05-19T03:31:41.346Z,712.00
2019-05-19T03:32:41.152Z,764.00
2019-05-19T03:33:41.076Z,816.00
2019-05-19T03:34:40.955Z,868.00
2019-05-19T03:35:40.860Z,920.00
2019-05-19T03:36:40.765Z,968.00
2019-05-19T03:37:40.668Z,1016.00
2019-05-19T03:38:40.595Z,1064.00
2019-05-19T03:39:40.481Z,1116.00
2019-05-19T03:40:40.387Z,1156.00
2019-05-19T03:41:40.288Z,1196.00
2019-05-19T03:42:40.192Z,1240.00
2019-05-19T03:43:40.114Z,1296.00
2019-05-19T03:44:40.002Z,1352.00
2019-05-19T03:45:40.022Z,1404.00
2019-05-19T03:46:39.812Z,1456.00
2019-05-19T03:47:39.724Z,1496.00
2019-05-19T03:48:39.633Z,1560.00
2019-05-19T03:49:39.524Z,1628.00
2019-05-19T03:50:39.434Z,1688.00
2019-05-19T03:51:39.341Z,1748.00
2019-05-19T03:52:39.242Z,1804.00
2019-05-19T03:53:39.159Z,1860.00
2019-05-19T03:54:39.050Z,1924.00
2019-05-19T03:55:38.954Z,2004.00
2019-05-19T03:56:38.857Z,2080.00
2019-05-19T03:57:38.762Z,2160.00
2019-05-19T03:58:38.679Z,2252.00
2019-05-19T03:59:38.571Z,2348.00
2019-05-19T04:00:38.475Z,2440.00
2019-05-19T04:01:38.379Z,2536.00
2019-05-19T04:02:38.297Z,2636.00
2019-05-19T04:03:38.214Z,2732.00
2019-05-19T04:04:38.097Z,2840.00
2019-05-19T04:05:38.000Z,2936.00
2019-05-19T04:06:37.906Z,3060.00
2019-05-19T04:07:37.807Z,3212.00
2019-05-19T04:08:37.728Z,3364.00
2019-05-19T04:09:37.615Z,3492.00
2019-05-19T04:10:37.532Z,3608.00
2019-05-19T04:11:37.430Z,3704.00
2019-05-19T04:12:37.332Z,3780.00
2019-05-19T04:13:37.250Z,3856.00
2019-05-19T04:14:37.139Z,3868.00
2019-05-19T04:15:37.047Z,3828.00
2019-05-19T04:16:36.962Z,3748.00
2019-05-19T04:17:36.855Z,3772.00
2019-05-19T04:18:36.760Z,3536.00
2019-05-19T04:19:36.678Z,3488.00
2019-05-19T04:20:36.581Z,3488.00
2019-05-19T04:21:48.288Z,3528.00
2019-05-19T04:22:36.377Z,3648.00
2019-05-19T04:23:36.294Z,4048.00
2019-05-19T04:24:36.202Z,3692.00
2019-05-19T04:25:36.095Z,3784.00
2019-05-19T04:26:35.999Z,3720.00
2019-05-19T04:27:35.903Z,3900.00
2019-05-19T04:28:35.814Z,3920.00
2019-05-19T04:29:39.181Z,3908.00
2019-05-19T04:30:35.627Z,3940.00
2019-05-19T04:31:35.524Z,4000.00
2019-05-19T04:32:35.435Z,4048.00
2019-05-19T04:33:35.336Z,4120.00
2019-05-19T04:34:35.253Z,4036.00
2019-05-19T04:35:35.161Z,4960.00
2019-05-19T04:36:35.048Z,4216.00
2019-05-19T04:37:34.957Z,4640.00
2019-05-19T04:38:34.861Z,4856.00
2019-05-19T04:39:34.777Z,4028.00
2019-05-19T04:40:34.684Z,3860.00
2019-05-19T04:41:34.578Z,4324.00
2019-05-19T04:42:34.483Z,3984.00
2019-05-19T04:43:34.385Z,4188.00
2019-05-19T04:44:34.302Z,4516.00
2019-05-19T04:45:34.193Z,5332.00
2019-05-19T04:46:34.102Z,5680.00
2019-05-19T04:47:34.006Z,5484.00
2019-05-19T04:48:33.909Z,6868.00
2019-05-19T04:49:33.830Z,7448.00
2019-05-19T04:50:33.720Z,7228.00
2019-05-19T04:51:33.634Z,7280.00
2019-05-19T04:52:33.536Z,7848.00
2019-05-19T04:53:33.437Z,7424.00
2019-05-19T04:54:33.355Z,6992.00
2019-05-19T04:55:33.247Z,6948.00
2019-05-19T04:56:33.152Z,6592.00
2019-05-19T04:57:33.062Z,6472.00
2019-05-19T04:58:32.961Z,6508.00
2019-05-19T04:59:32.885Z,6648.00
2019-05-19T05:00:32.773Z,8756.00
2019-05-19T05:01:32.677Z,7976.00
2019-05-19T05:02:32.589Z,8440.00
2019-05-19T05:03:32.490Z,7908.00
2019-05-19T05:04:32.413Z,8188.00
2019-05-19T05:05:32.349Z,11752.00
2019-05-19T05:06:32.206Z,10636.00
2019-05-19T05:07:32.129Z,9052.00
2019-05-19T05:08:32.125Z,8324.00
2019-05-19T05:09:31.940Z,8444.00
2019-05-19T05:10:31.829Z,7948.00
2019-05-19T05:11:31.735Z,6868.00
2019-05-19T05:12:31.645Z,6200.00
2019-05-19T05:13:31.544Z,6028.00
2019-05-19T05:14:31.467Z,7644.00
2019-05-19T05:15:31.469Z,8036.00
2019-05-19T05:16:31.271Z,6656.00
2019-05-19T05:17:31.173Z,6136.00
2019-05-19T05:18:31.092Z,8036.00
2019-05-19T05:19:30.999Z,14752.00
2019-05-19T05:20:30.890Z,18944.00
2019-05-19T05:21:30.797Z,16160.00
2019-05-19T05:22:30.823Z,9248.00
2019-05-19T05:23:30.610Z,7912.00
2019-05-19T05:24:30.530Z,13364.00
2019-05-19T05:25:30.423Z,11844.00
2019-05-19T05:26:30.329Z,14120.00
2019-05-19T05:27:30.235Z,12092.00
2019-05-19T05:28:30.144Z,9764.00
2019-05-19T05:29:30.172Z,9536.00
2019-05-19T05:30:29.957Z,12436.00
2019-05-19T05:31:29.862Z,10316.00
2019-05-19T05:32:29.787Z,10448.00
2019-05-19T05:33:29.685Z,10444.00
2019-05-19T05:34:29.598Z,9324.00
2019-05-19T05:35:29.491Z,10872.00
2019-05-19T05:36:29.502Z,7972.00
2019-05-19T05:37:29.304Z,6508.00
2019-05-19T05:38:29.209Z,5824.00
2019-05-19T05:39:29.132Z,5596.00
2019-05-19T05:40:29.024Z,6912.00
2019-05-19T05:41:28.945Z,9284.00
2019-05-19T05:42:31.680Z,8612.00
2019-05-19T05:43:28.852Z,6560.00
2019-05-19T05:44:28.655Z,7404.00
2019-05-19T05:45:28.572Z,7040.00
2019-05-19T05:46:28.465Z,6788.00
2019-05-19T05:47:28.371Z,6800.00
2019-05-19T05:48:28.284Z,7928.00
2019-05-19T05:49:28.188Z,9008.00
2019-05-19T05:50:28.210Z,8344.00
2019-05-19T05:51:27.999Z,6952.00
2019-05-19T05:52:38.081Z,5736.00
2019-05-19T05:53:27.815Z,5740.00
2019-05-19T05:54:27.720Z,7344.00
2019-05-19T05:55:27.685Z,10160.00
2019-05-19T05:56:27.532Z,7108.00
2019-05-19T05:57:27.551Z,6884.00
2019-05-19T05:58:27.345Z,6536.00
2019-05-19T05:59:27.254Z,7752.00
2019-05-19T06:00:27.174Z,8544.00
2019-05-19T06:01:27.074Z,9956.00
2019-05-19T06:02:26.977Z,8448.00
2019-05-19T06:03:26.893Z,8952.00
2019-05-19T06:04:26.902Z,9740.00
2019-05-19T06:05:26.707Z,11080.00
2019-05-19T06:06:26.600Z,12768.00
2019-05-19T06:07:26.504Z,11184.00
2019-05-19T06:08:26.410Z,10508.00
2019-05-19T06:09:26.317Z,8756.00
2019-05-19T06:10:26.239Z,7796.00
2019-05-19T06:11:26.235Z,7508.00
2019-05-19T06:12:26.039Z,7696.00
2019-05-19T06:13:25.944Z,7968.00
2019-05-19T06:14:25.861Z,7580.00
2019-05-19T06:15:25.777Z,7944.00
2019-05-19T06:16:25.668Z,8000.00
2019-05-19T06:17:25.574Z,8056.00
2019-05-19T06:18:25.479Z,8560.00
2019-05-19T06:19:25.387Z,8624.00
2019-05-19T06:20:25.311Z,10988.00
2019-05-19T06:21:25.205Z,7704.00
2019-05-19T06:22:25.109Z,10500.00
2019-05-19T06:23:25.027Z,12100.00
2019-05-19T06:24:24.924Z,9312.00
2019-05-19T06:25:24.999Z,9232.00
2019-05-19T06:26:24.740Z,11140.00
2019-05-19T06:27:24.644Z,12388.00
2019-05-19T06:28:24.552Z,9104.00
2019-05-19T06:29:24.457Z,9640.00
2019-05-19T06:30:24.384Z,10088.00
2019-05-19T06:31:24.275Z,14472.00
2019-05-19T06:32:24.194Z,11424.00
2019-05-19T06:33:24.087Z,14176.00
2019-05-19T06:34:23.993Z,22112.00
2019-05-19T06:35:23.919Z,29056.00
2019-05-19T06:36:23.815Z,33408.00
2019-05-19T06:37:23.718Z,35072.00
2019-05-19T06:38:23.734Z,32736.00
2019-05-19T06:39:23.536Z,34784.00
2019-05-19T06:40:23.465Z,38816.00
2019-05-19T06:41:23.349Z,29472.00
2019-05-19T06:42:23.256Z,33408.00
2019-05-19T06:43:23.169Z,36128.00
2019-05-19T06:44:23.076Z,11680.00
2019-05-19T06:45:23.026Z,9588.00
2019-05-19T06:46:22.893Z,10392.00
2019-05-19T06:47:22.810Z,13156.00
2019-05-19T06:48:22.707Z,12700.00
2019-05-19T06:49:22.615Z,11888.00
2019-05-19T06:50:22.539Z,11732.00
2019-05-19T06:51:22.434Z,11756.00
2019-05-19T06:52:22.347Z,12568.00
2019-05-19T06:53:22.251Z,13224.00
2019-05-19T06:54:22.162Z,17472.00
2019-05-19T06:55:22.099Z,20896.00
2019-05-19T06:56:21.984Z,28960.00
2019-05-19T06:57:21.886Z,22496.00
2019-05-19T06:58:21.796Z,30944.00
2019-05-19T06:59:21.704Z,28736.00
2019-05-19T07:00:21.614Z,27328.00
2019-05-19T07:01:21.539Z,33824.00
2019-05-19T07:02:21.437Z,35456.00
2019-05-19T07:03:21.341Z,39232.00
2019-05-19T07:04:21.249Z,33792.00
2019-05-19T07:05:21.157Z,46912.00
2019-05-19T07:06:21.084Z,43616.00
2019-05-19T07:07:20.974Z,33472.00
2019-05-19T07:08:20.883Z,33568.00
2019-05-19T07:09:20.792Z,37984.00
2019-05-19T07:10:20.707Z,37408.00
2019-05-19T07:11:20.719Z,40672.00
2019-05-19T07:12:20.526Z,44160.00
2019-05-19T07:13:20.434Z,49248.00
2019-05-19T07:14:20.338Z,50112.00
2019-05-19T07:15:20.254Z,57568.00
2019-05-19T07:16:20.175Z,52608.00
2019-05-19T07:17:20.071Z,53120.00
2019-05-19T07:18:19.979Z,52000.00
2019-05-19T07:19:19.891Z,55264.00
2019-05-19T07:20:19.804Z,54208.00
2019-05-19T07:21:19.729Z,55968.00
2019-05-19T07:22:19.648Z,56416.00
2019-05-19T07:23:27.751Z,53344.00
2019-05-19T07:24:19.441Z,54240.00
2019-05-19T07:25:19.390Z,57536.00
2019-05-19T07:26:19.277Z,59616.00
2019-05-19T07:27:19.172Z,59488.00
2019-05-19T07:28:19.096Z,60000.00
2019-05-19T07:29:18.993Z,59264.00
2019-05-19T07:30:18.906Z,64608.00
2019-05-19T07:31:18.830Z,63232.00
2019-05-19T07:32:18.727Z,66880.00
2019-05-19T07:33:18.638Z,62080.00
2019-05-19T07:34:18.555Z,59104.00
2019-05-19T07:35:18.476Z,63616.00
2019-05-19T07:36:18.386Z,65920.00
2019-05-19T07:37:18.282Z,69376.00
2019-05-19T07:38:18.194Z,77344.00
2019-05-19T07:39:18.105Z,78496.00
2019-05-19T07:40:18.019Z,73344.00
2019-05-19T07:41:17.941Z,71936.00
2019-05-19T07:42:17.841Z,66848.00
2019-05-19T07:43:17.773Z,68128.00
2019-05-19T07:44:17.668Z,66688.00
2019-05-19T07:45:17.576Z,70432.00
2019-05-19T07:46:17.509Z,74912.00
2019-05-19T07:47:17.399Z,77792.00
2019-05-19T07:48:17.313Z,75840.00
2019-05-19T07:49:17.232Z,72896.00
2019-05-19T07:50:17.138Z,71616.00
2019-05-19T07:51:19.521Z,71872.00
2019-05-19T07:52:16.961Z,75392.00
2019-05-19T07:53:16.875Z,76736.00
2019-05-19T07:54:16.789Z,77376.00
2019-05-19T07:55:16.808Z,75648.00
2019-05-19T07:56:16.626Z,74432.00
2019-05-19T07:57:16.527Z,67360.00
2019-05-19T07:58:16.442Z,64864.00
2019-05-19T07:59:16.354Z,66528.00
2019-05-19T08:00:16.264Z,69888.00
2019-05-19T08:01:16.233Z,69632.00
2019-05-19T08:02:16.198Z,73728.00
2019-05-19T08:03:16.009Z,73728.00
2019-05-19T08:04:15.918Z,71712.00
2019-05-19T08:05:15.846Z,74624.00
2019-05-19T08:06:15.810Z,76320.00
2019-05-19T08:07:15.663Z,80384.00
2019-05-19T08:08:15.593Z,81888.00
2019-05-19T08:09:15.606Z,85152.00
2019-05-19T08:10:15.399Z,84480.00
2019-05-19T08:11:15.314Z,81312.00
2019-05-19T08:12:15.242Z,75488.00
2019-05-19T08:13:15.141Z,76032.00
2019-05-19T08:14:15.054Z,80544.00
2019-05-19T08:15:14.971Z,81856.00
2019-05-19T08:16:14.992Z,77440.00
2019-05-19T08:17:14.813Z,89440.00
2019-05-19T08:18:14.710Z,91648.00
2019-05-19T08:19:14.648Z,81536.00
2019-05-19T08:20:14.539Z,79872.00
2019-05-19T08:21:14.454Z,79936.00
2019-05-19T08:22:14.382Z,82976.00
2019-05-19T08:23:14.288Z,78688.00
2019-05-19T08:24:14.198Z,82144.00
2019-05-19T08:25:14.115Z,89088.00
2019-05-19T08:26:14.039Z,89248.00
2019-05-19T08:27:13.971Z,90112.00
2019-05-19T08:28:13.877Z,85184.00
2019-05-19T08:29:13.771Z,83904.00
2019-05-19T08:30:13.702Z,91904.00
2019-05-19T08:31:13.597Z,93312.00
2019-05-19T08:32:13.522Z,95744.00
2019-05-19T08:33:13.422Z,92608.00
2019-05-19T08:34:13.361Z,91360.00
2019-05-19T08:35:13.253Z,91936.00
2019-05-19T08:36:13.168Z,91488.00
2019-05-19T08:37:13.098Z,96960.00
2019-05-19T08:38:13.008Z,96896.00
2019-05-19T08:39:12.910Z,92480.00
2019-05-19T08:40:12.828Z,95328.00
2019-05-19T08:41:12.742Z,96832.00
2019-05-19T08:42:12.669Z,91936.00
2019-05-19T08:43:12.570Z,95200.00
2019-05-19T08:44:12.485Z,97920.00
2019-05-19T08:45:12.402Z,91648.00
2019-05-19T08:46:12.317Z,92864.00
2019-05-19T08:47:12.245Z,90432.00
2019-05-19T08:48:12.145Z,82144.00
2019-05-19T08:49:12.057Z,84576.00
2019-05-19T08:50:11.973Z,84448.00
2019-05-19T08:51:11.887Z,82400.00
2019-05-19T08:52:11.818Z,76512.00
2019-05-19T08:53:11.723Z,79872.00
2019-05-19T08:54:15.207Z,70496.00
2019-05-19T08:55:11.555Z,77312.00
2019-05-19T08:56:11.463Z,79584.00
2019-05-19T08:57:11.392Z,77856.00
2019-05-19T08:58:11.293Z,86880.00
2019-05-19T08:59:11.207Z,84608.00
2019-05-19T09:00:11.126Z,87712.00
2019-05-19T09:01:11.040Z,92928.00
2019-05-19T09:02:10.969Z,95136.00
2019-05-19T09:03:10.886Z,94272.00
2019-05-19T09:04:10.786Z,93632.00
2019-05-19T09:05:10.705Z,105280.00
2019-05-19T09:06:10.720Z,106176.00
2019-05-19T09:07:10.535Z,111392.00
2019-05-19T09:08:10.466Z,102976.00
2019-05-19T09:09:10.370Z,89152.00
2019-05-19T09:10:10.278Z,93312.00
2019-05-19T09:11:10.199Z,79104.00
2019-05-19T09:12:10.122Z,102240.00
2019-05-19T09:13:10.127Z,97824.00
2019-05-19T09:14:09.964Z,98464.00
2019-05-19T09:15:09.866Z,111424.00
2019-05-19T09:16:09.773Z,102880.00
2019-05-19T09:17:09.686Z,108160.00
2019-05-19T09:18:09.617Z,96992.00
2019-05-19T09:19:09.642Z,102208.00
2019-05-19T09:20:09.433Z,100928.00
2019-05-19T09:21:09.352Z,98976.00
2019-05-19T09:22:09.277Z,95712.00
2019-05-19T09:23:09.194Z,98272.00
2019-05-19T09:24:09.095Z,94208.00
2019-05-19T09:25:09.009Z,85280.00
2019-05-19T09:26:08.926Z,79328.00
2019-05-19T09:27:08.839Z,70624.00
2019-05-19T09:28:08.771Z,71008.00
2019-05-19T09:29:08.669Z,71040.00
2019-05-19T09:30:08.583Z,70688.00
2019-05-19T09:31:08.501Z,68128.00
2019-05-19T09:32:08.412Z,74400.00
2019-05-19T09:33:08.342Z,80768.00
2019-05-19T09:34:08.245Z,76736.00
2019-05-19T09:35:08.165Z,66464.00
2019-05-19T09:36:08.075Z,72736.00
2019-05-19T09:37:07.990Z,86592.00
2019-05-19T09:38:07.921Z,83520.00
2019-05-19T09:39:07.821Z,99936.00
2019-05-19T09:40:07.759Z,99584.00
2019-05-19T09:41:07.653Z,98528.00
2019-05-19T09:42:07.564Z,107424.00
2019-05-19T09:43:07.500Z,111744.00
2019-05-19T09:44:07.398Z,103040.00
2019-05-19T09:45:07.321Z,110592.00
2019-05-19T09:46:07.228Z,115264.00
2019-05-19T09:47:07.184Z,107968.00
2019-05-19T09:48:07.073Z,105984.00
2019-05-19T09:49:06.994Z,111392.00
2019-05-19T09:50:06.890Z,110816.00
2019-05-19T09:51:06.805Z,101984.00
2019-05-19T09:52:06.730Z,115040.00
2019-05-19T09:53:06.650Z,118720.00
2019-05-19T09:54:06.550Z,106784.00
2019-05-19T09:55:06.467Z,106144.00
2019-05-19T09:56:06.382Z,107232.00
2019-05-19T09:57:06.332Z,111552.00
2019-05-19T09:58:06.228Z,105760.00
2019-05-19T09:59:06.141Z,99648.00
2019-05-19T10:00:06.048Z,104768.00
2019-05-19T10:01:05.962Z,113632.00
2019-05-19T10:02:05.879Z,111968.00
2019-05-19T10:03:05.809Z,106368.00
2019-05-19T10:04:07.155Z,106560.00
2019-05-19T10:05:05.628Z,106464.00
2019-05-19T10:06:05.544Z,106176.00
2019-05-19T10:07:06.255Z,102496.00
2019-05-19T10:08:05.394Z,93152.00
2019-05-19T10:09:05.296Z,92192.00
2019-05-19T10:10:05.212Z,89536.00
2019-05-19T10:11:05.127Z,87584.00
2019-05-19T10:12:05.045Z,82336.00
2019-05-19T10:13:04.976Z,85440.00
2019-05-19T10:14:04.877Z,88608.00
2019-05-19T10:15:04.796Z,83808.00
2019-05-19T10:16:04.714Z,91808.00
2019-05-19T10:17:04.628Z,90080.00
2019-05-19T10:18:04.566Z,85536.00
2019-05-19T10:19:04.461Z,84384.00
2019-05-19T10:20:04.382Z,83680.00
2019-05-19T10:21:04.296Z,79488.00
2019-05-19T10:22:04.266Z,83552.00
2019-05-19T10:23:04.146Z,93568.00
2019-05-19T10:24:04.052Z,88032.00
2019-05-19T10:25:20.525Z,91296.00
2019-05-19T10:26:03.887Z,96064.00
2019-05-19T10:27:03.800Z,104000.00
2019-05-19T10:28:03.734Z,104192.00
2019-05-19T10:29:03.635Z,110080.00
2019-05-19T10:30:03.555Z,126592.00
2019-05-19T10:31:03.473Z,117728.00
2019-05-19T10:32:03.391Z,114848.00
2019-05-19T10:33:03.322Z,102112.00
2019-05-19T10:34:03.225Z,97120.00
2019-05-19T10:35:03.145Z,104000.00
2019-05-19T10:36:03.067Z,96064.00
2019-05-19T10:37:02.980Z,104736.00
2019-05-19T10:38:02.901Z,102432.00
2019-05-19T10:39:02.829Z,106208.00
2019-05-19T10:40:02.739Z,117600.00
2019-05-19T10:41:02.653Z,115072.00
2019-05-19T10:42:02.958Z,94176.00
2019-05-19T10:43:02.502Z,117376.00
2019-05-19T10:44:02.406Z,108768.00
2019-05-19T10:45:02.323Z,116288.00
2019-05-19T10:46:02.240Z,129792.00
2019-05-19T10:47:02.161Z,118144.00
2019-05-19T10:48:02.080Z,121440.00
2019-05-19T10:49:02.009Z,109376.00
2019-05-19T10:50:01.915Z,107936.00
2019-05-19T10:51:01.831Z,102176.00
2019-05-19T10:52:01.762Z,94336.00
2019-05-19T10:53:01.671Z,98080.00
2019-05-19T10:54:01.601Z,98112.00
2019-05-19T10:55:01.533Z,102784.00
2019-05-19T10:56:01.423Z,98208.00
2019-05-19T10:57:01.457Z,108384.00
2019-05-19T10:58:01.259Z,73056.00
2019-05-19T10:59:01.192Z,96992.00
2019-05-19T11:00:01.099Z,114304.00
2019-05-19T11:01:01.014Z,110336.00
2019-05-19T11:02:00.934Z,114336.00
2019-05-19T11:03:00.852Z,104608.00
2019-05-19T11:04:00.890Z,115008.00
2019-05-19T11:05:00.690Z,122592.00
2019-05-19T11:06:00.608Z,129952.00
2019-05-19T11:07:00.527Z,128640.00
2019-05-19T11:08:00.533Z,124672.00
2019-05-19T11:09:00.381Z,124960.00
2019-05-19T11:10:00.288Z,57824.00
2019-05-19T11:11:00.304Z,115392.00
2019-05-19T11:12:00.123Z,101696.00
2019-05-19T11:13:00.042Z,106400.00
2019-05-19T11:13:59.979Z,119776.00
2019-05-19T11:14:59.881Z,112416.00
2019-05-19T11:15:59.794Z,112160.00
2019-05-19T11:16:59.711Z,106496.00
2019-05-19T11:17:59.738Z,99744.00
2019-05-19T11:18:59.570Z,113888.00
2019-05-19T11:19:59.475Z,106976.00
2019-05-19T11:20:59.386Z,105024.00
2019-05-19T11:21:59.306Z,109184.00
2019-05-19T11:22:59.228Z,95008.00
2019-05-19T11:23:59.158Z,106080.00
2019-05-19T11:24:59.173Z,120640.00
2019-05-19T11:25:58.983Z,117184.00
2019-05-19T11:26:58.903Z,115200.00
2019-05-19T11:27:58.870Z,110624.00
2019-05-19T11:28:58.754Z,119008.00
2019-05-19T11:29:58.676Z,120992.00
2019-05-19T11:30:58.579Z,30976.00
2019-05-19T11:31:58.606Z,108992.00
2019-05-19T11:32:58.415Z,89536.00
2019-05-19T11:33:58.351Z,103712.00
2019-05-19T11:34:58.254Z,105696.00
2019-05-19T11:35:58.177Z,107936.00
2019-05-19T11:36:58.095Z,97472.00
2019-05-19T11:37:58.010Z,83776.00
2019-05-19T11:38:58.066Z,106784.00
2019-05-19T11:39:57.849Z,84000.00
2019-05-19T11:40:57.768Z,71840.00
2019-05-19T11:41:57.686Z,61376.00
2019-05-19T11:42:57.608Z,46240.00
2019-05-19T11:43:57.527Z,45984.00
2019-05-19T11:44:57.457Z,35520.00
2019-05-19T11:45:57.465Z,34624.00
2019-05-19T11:46:57.278Z,35392.00
2019-05-19T11:47:57.201Z,38624.00
2019-05-19T11:48:57.116Z,37760.00
2019-05-19T11:49:57.048Z,35744.00
2019-05-19T11:50:56.950Z,34976.00
2019-05-19T11:51:56.868Z,42976.00
2019-05-19T11:52:56.904Z,42784.00
2019-05-19T11:53:56.704Z,47168.00
2019-05-19T11:54:56.631Z,39328.00
2019-05-19T11:56:06.334Z,37536.00
2019-05-19T11:56:56.455Z,34208.00
2019-05-19T11:57:56.368Z,34944.00
2019-05-19T11:58:56.282Z,32960.00
2019-05-19T11:59:56.314Z,33152.00
2019-05-19T12:00:56.115Z,32288.00
2019-05-19T12:01:56.029Z,31936.00
2019-05-19T12:02:55.943Z,33504.00
2019-05-19T12:03:55.859Z,33632.00
2019-05-19T12:04:55.848Z,34368.00
2019-05-19T12:05:55.837Z,38080.00
2019-05-19T12:06:55.605Z,42528.00
2019-05-19T12:07:55.519Z,41824.00